Morgenster — PHMY — position and weather

sailwx.info

Track history (hours):
 
Tides and Currents Weather Stations Pressure Air Temp Water Temp Dewpoint Dewpoint Depression Visibility Wind Speed Wind Dir Waves Ship Positions

Morgenster

Last reported at 2018-Apr-20 06:23 UTC. Time now 2018-Apr-20 06:42 UTC.
Position N 53°03' E 004°51'.

Length 38 m; draft 2.4 m.

Type: Sailing vessel. MMSI: 245136000.

Date/timePositionNaut miles runAvg speedWind from/ knotsBaromVisibWave heightAir tempDewpointWater temp
2018-Apr-20 06:23N 53°03' E 004°51'0 0.0
2018-Apr-20 05:50N 53°03' E 004°51'0 0.0
2018-Apr-20 05:29N 53°03' E 004°51'0 0.0
2018-Apr-20 04:53N 53°03' E 004°51'0 0.0
2018-Apr-20 04:29N 53°03' E 004°51'0 0.1
2018-Apr-20 03:59N 53°03' E 004°51'0 0.1
2018-Apr-20 03:23N 53°03' E 004°51'0 0.0
2018-Apr-20 02:59N 53°03' E 004°51'0 0.0
2018-Apr-20 02:26N 53°03' E 004°51'0 0.0
2018-Apr-20 01:59N 53°03' E 004°51'0 0.0
2018-Apr-20 01:29N 53°03' E 004°51'0 0.0
2018-Apr-20 00:59N 53°03' E 004°51'0 0.0
2018-Apr-20 00:26N 53°03' E 004°51'0 0.0
2018-Apr-19 23:56N 53°03' E 004°51'0 0.0
2018-Apr-19 23:29N 53°03' E 004°51'0 0.0
2018-Apr-19 22:56N 53°03' E 004°51'0 0.0
2018-Apr-19 22:29N 53°03' E 004°51'0 0.0
2018-Apr-19 21:53N 53°03' E 004°51'0 0.0
2018-Apr-19 21:26N 53°03' E 004°51'0 0.0
2018-Apr-19 20:59N 53°03' E 004°51'0 0.0
2018-Apr-19 20:26N 53°03' E 004°51'0 0.0
2018-Apr-19 19:56N 53°03' E 004°51'0 0.0
2018-Apr-19 19:23N 53°03' E 004°51'0 0.0
2018-Apr-19 18:56N 53°03' E 004°51'0 0.0
2018-Apr-19 18:23N 53°03' E 004°51'0 0.0
2018-Apr-19 17:56N 53°03' E 004°51'0 0.0
2018-Apr-19 17:29N 53°03' E 004°51'0 0.0
2018-Apr-19 16:59N 53°03' E 004°51'0 0.0
2018-Apr-19 16:31N 53°03' E 004°51'3 5.4
2018-Apr-19 16:00N 53°00' E 004°49'4 6.0
2018-Apr-19 15:25N 52°59' E 004°44'2 5.0
2018-Apr-19 15:01N 53°00' E 004°42'3 5.6
2018-Apr-19 14:30N 53°03' E 004°41'19 4.8
2018-Apr-19 10:29N 53°20' E 004°56'3 5.3
2018-Apr-19 09:58N 53°22' E 004°60'3 5.9
2018-Apr-19 09:30N 53°23' E 005°03'3 6.2
2018-Apr-19 09:00N 53°25' E 005°08'3 6.8
2018-Apr-19 08:30N 53°26' E 005°13'2 4.6
2018-Apr-19 08:00N 53°27' E 005°17'2 4.6
2018-Apr-19 07:30N 53°28' E 005°20'  
2018-Apr-16 17:37N 53°29' E 005°27'1 5.0
2018-Apr-16 17:30N 53°29' E 005°26'3 5.6
2018-Apr-16 17:01N 53°28' E 005°21'3 6.2
2018-Apr-16 16:30N 53°27' E 005°16'3 6.4
2018-Apr-16 16:00N 53°26' E 005°11'4 6.9
2018-Apr-16 15:25N 53°24' E 005°05'25 4.2
2018-Apr-16 09:27N 53°03' E 004°42'3 5.5
2018-Apr-16 08:59N 53°01' E 004°42'2 4.2
2018-Apr-16 08:30N 52°59' E 004°44'2 3.8
2018-Apr-16 08:00N 52°59' E 004°47'1 1.8
2018-Apr-16 07:23N 52°59' E 004°49'0 0.0
2018-Apr-16 06:53N 52°59' E 004°49'0 0.0
2018-Apr-16 06:26N 52°59' E 004°49'0 0.0
2018-Apr-16 04:32N 52°59' E 004°49'0 0.0
2018-Apr-16 04:11N 52°59' E 004°49'0 0.0
2018-Apr-16 03:56N 52°59' E 004°49'0 0.0
2018-Apr-16 03:23N 52°59' E 004°49'0 0.0
2018-Apr-16 02:53N 52°59' E 004°49'0 0.0
2018-Apr-16 02:14N 52°59' E 004°49'0 0.0
2018-Apr-16 00:56N 52°59' E 004°49'0 0.0
2018-Apr-16 00:23N 52°59' E 004°49'0 0.0
2018-Apr-15 22:44N 52°59' E 004°48'0 0.0
2018-Apr-15 22:26N 52°59' E 004°48'0 0.0
2018-Apr-15 21:56N 52°59' E 004°48'0 0.0
2018-Apr-15 21:11N 52°59' E 004°48'0 0.0
2018-Apr-15 19:59N 52°59' E 004°49'0 0.0
2018-Apr-15 19:29N 52°59' E 004°49'0 0.0
2018-Apr-15 18:41N 52°59' E 004°49'0 0.0
2018-Apr-15 18:29N 52°59' E 004°49'0 0.0
2018-Apr-15 17:59N 52°59' E 004°49'0 0.0
2018-Apr-15 17:26N 52°59' E 004°49'0 0.0
2018-Apr-15 16:51N 52°59' E 004°49'1 3.9
2018-Apr-15 16:29N 52°58' E 004°47'1 1.9
2018-Apr-15 16:00N 52°57' E 004°47'1 0.0
2018-Apr-14 07:35N 52°57' E 004°46'0 0.0
2018-Apr-14 07:26N 52°57' E 004°46'0 0.0
2018-Apr-14 06:56N 52°57' E 004°46'0 0.0
2018-Apr-14 06:26N 52°57' E 004°46'0 0.0
2018-Apr-14 05:59N 52°57' E 004°46'0 0.0
2018-Apr-14 05:26N 52°57' E 004°46'0 0.0
2018-Apr-14 04:56N 52°57' E 004°46'0 0.0
2018-Apr-14 04:14N 52°57' E 004°46'0 0.0
2018-Apr-14 03:56N 52°57' E 004°46'0 0.0
2018-Apr-14 03:26N 52°57' E 004°46'0 0.0
2018-Apr-14 02:47N 52°57' E 004°46'0 0.0
2018-Apr-14 02:20N 52°57' E 004°46'0 0.0
2018-Apr-14 01:59N 52°57' E 004°46'0 0.0
2018-Apr-14 00:14N 52°57' E 004°46'0 0.0
2018-Apr-13 23:26N 52°57' E 004°46'0 0.0
2018-Apr-13 22:56N 52°57' E 004°46'0 0.0
2018-Apr-13 22:23N 52°57' E 004°46'0 0.0
2018-Apr-13 21:50N 52°57' E 004°46'0 0.0
2018-Apr-13 20:14N 52°57' E 004°46'0 0.0
2018-Apr-13 19:59N 52°57' E 004°46'0 0.0
2018-Apr-13 19:20N 52°57' E 004°46'0 0.0
2018-Apr-13 18:59N 52°57' E 004°46'0 0.0
2018-Apr-13 18:23N 52°57' E 004°46'0 0.0
2018-Apr-13 17:59N 52°57' E 004°46'0 0.0
2018-Apr-13 17:17N 52°57' E 004°46'0 0.0
2018-Apr-13 16:53N 52°57' E 004°46'0 0.0
2018-Apr-13 16:26N 52°57' E 004°46'0 0.0
2018-Apr-13 15:56N 52°57' E 004°46'0 0.0
2018-Apr-13 15:23N 52°57' E 004°46'0 0.0
2018-Apr-13 14:20N 52°57' E 004°46'0 0.0
2018-Apr-13 13:29N 52°57' E 004°46'0 0.0
2018-Apr-13 12:53N 52°57' E 004°46'0 0.0
2018-Apr-13 12:26N 52°57' E 004°46'0 0.0
2018-Apr-13 11:47N 52°57' E 004°46'0 1.7
2018-Apr-13 11:30N 52°57' E 004°47'1 1.0
2018-Apr-13 11:01N 52°58' E 004°47'2 3.6
2018-Apr-13 10:30N 52°59' E 004°48'3 5.6
2018-Apr-13 10:00N 53°01' E 004°51'1 0.4
2018-Apr-13 06:21N 53°03' E 004°52'0 0.0
2018-Apr-13 06:00N 53°03' E 004°52'0 0.0
2018-Apr-13 03:57N 53°03' E 004°52'0 0.0
2018-Apr-13 03:27N 53°03' E 004°52'0 0.0
2018-Apr-13 02:51N 53°03' E 004°52'0 0.0
2018-Apr-13 02:24N 53°03' E 004°52'0 0.0
2018-Apr-13 01:39N 53°03' E 004°52'0 0.0
2018-Apr-13 01:18N 53°03' E 004°52'0 0.0
2018-Apr-13 01:00N 53°02' E 004°52'0 0.0
2018-Apr-12 18:53N 53°02' E 004°52'2 4.4
2018-Apr-12 18:28N 53°01' E 004°50'3 5.6
2018-Apr-12 18:00N 52°59' E 004°47'3 5.4
2018-Apr-12 17:27N 52°58' E 004°43'3 6.4
2018-Apr-12 17:00N 52°55' E 004°42'3 6.2
2018-Apr-12 16:30N 52°52' E 004°40'3 6.2
2018-Apr-12 16:00N 52°49' E 004°39'6 6.5
2018-Apr-12 15:07N 52°43' E 004°37'2 7.6
2018-Apr-12 14:48N 52°41' E 004°36'2 7.3
2018-Apr-12 14:29N 52°39' E 004°36'2 4.4
2018-Apr-12 13:57N 52°36' E 004°35'2 5.3
2018-Apr-12 13:30N 52°34' E 004°34'3 5.8
2018-Apr-12 13:00N 52°31' E 004°33'3 6.4
2018-Apr-12 12:30N 52°28' E 004°32'3 6.8
2018-Apr-12 12:00N 52°25' E 004°31'3 6.1
2018-Apr-12 11:30N 52°22' E 004°29'3 5.6
2018-Apr-12 11:00N 52°19' E 004°27'3 5.1
2018-Apr-12 10:30N 52°17' E 004°26'3 5.2
2018-Apr-12 10:00N 52°15' E 004°24'2 5.0
2018-Apr-12 09:31N 52°12' E 004°22'2 4.5
2018-Apr-12 09:00N 52°11' E 004°20'2 4.0
2018-Apr-12 08:30N 52°09' E 004°18'2 4.1
2018-Apr-12 08:00N 52°07' E 004°16'2 3.8
2018-Apr-12 07:31N 52°06' E 004°14'2 3.1
2018-Apr-12 07:01N 52°06' E 004°11'1 2.8
2018-Apr-12 06:31N 52°05' E 004°09'1 2.7
2018-Apr-12 06:00N 52°04' E 004°07'1 2.3
2018-Apr-12 05:30N 52°04' E 004°06'1 2.3
2018-Apr-12 05:00N 52°03' E 004°04'1 2.5
2018-Apr-12 04:30N 52°02' E 004°03'2 3.1
2018-Apr-12 04:00N 52°01' E 004°01'2 4.5
2018-Apr-12 03:29N 51°60' E 003°58'3 4.6
2018-Apr-12 02:49N 51°58' E 003°53'2 5.2
2018-Apr-12 02:23N 51°58' E 003°50'53 5.5
2018-Apr-11 16:49N 51°53' E 002°24'3 5.1
2018-Apr-11 16:10N 51°53' E 002°19'1 5.1
2018-Apr-11 15:53N 51°53' E 002°17'4 5.4
2018-Apr-11 15:06N 51°52' E 002°10'1 5.4
2018-Apr-11 14:59N 51°52' E 002°09'3 5.7
2018-Apr-11 14:30N 51°51' E 002°05'3 5.6
2018-Apr-11 14:00N 51°50' E 002°00'3 5.9
2018-Apr-11 13:30N 51°49' E 001°56'3 6.2
2018-Apr-11 13:00N 51°48' E 001°51'3 6.2
2018-Apr-11 12:30N 51°49' E 001°47'3 6.5
2018-Apr-11 12:00N 51°50' E 001°42'3 6.8
2018-Apr-11 11:30N 51°51' E 001°36'3 5.6
2018-Apr-11 11:00N 51°53' E 001°33'3 5.4
2018-Apr-11 10:30N 51°55' E 001°32'3 6.6
2018-Apr-11 10:00N 51°56' E 001°26'3 6.6
2018-Apr-11 09:30N 51°55' E 001°21'2 4.7
2018-Apr-11 09:00N 51°57' E 001°18'3 5.5
2018-Apr-11 08:30N 51°59' E 001°16'3 5.1
2018-Apr-11 08:00N 52°00' E 001°12'2 4.9
2018-Apr-11 07:30N 52°02' E 001°09'1 1.6
2018-Apr-11 06:59N 52°03' E 001°10'0 0.0
2018-Apr-11 06:29N 52°03' E 001°10'0 0.0
2018-Apr-11 05:59N 52°03' E 001°10'0 0.0
2018-Apr-11 05:29N 52°03' E 001°10'0 0.0
2018-Apr-11 04:59N 52°03' E 001°10'0 0.0
2018-Apr-11 04:29N 52°03' E 001°10'0 0.0
2018-Apr-11 03:59N 52°03' E 001°10'0 0.0
2018-Apr-11 03:29N 52°03' E 001°10'0 0.0
2018-Apr-11 02:59N 52°03' E 001°10'0 0.0
2018-Apr-11 02:29N 52°03' E 001°10'0 0.0
2018-Apr-11 01:59N 52°03' E 001°10'0 0.0
2018-Apr-11 01:29N 52°03' E 001°10'0 0.0
2018-Apr-11 00:59N 52°03' E 001°10'0 0.0
2018-Apr-11 00:29N 52°03' E 001°10'0 0.0
2018-Apr-10 23:59N 52°03' E 001°10'0 0.0
2018-Apr-10 23:29N 52°03' E 001°10'0 0.0
2018-Apr-10 22:59N 52°03' E 001°10'0 0.0
2018-Apr-10 22:29N 52°03' E 001°10'0 0.0
2018-Apr-10 21:59N 52°03' E 001°10'0 0.0
2018-Apr-10 21:29N 52°03' E 001°10'0 0.0
2018-Apr-10 20:59N 52°03' E 001°10'0 0.0
2018-Apr-10 20:29N 52°03' E 001°10'0 0.0
2018-Apr-10 19:59N 52°03' E 001°10'0 0.0
2018-Apr-10 19:29N 52°03' E 001°10'0 0.0
2018-Apr-10 18:56N 52°03' E 001°10'0 0.0
2018-Apr-10 18:29N 52°03' E 001°10'0 0.0
2018-Apr-10 17:59N 52°03' E 001°10'0 0.0
2018-Apr-10 17:29N 52°03' E 001°10'0 0.0
2018-Apr-10 16:59N 52°03' E 001°10'0 0.0
2018-Apr-10 16:29N 52°03' E 001°10'0 0.0
2018-Apr-10 15:59N 52°03' E 001°10'0 0.0
2018-Apr-10 15:29N 52°03' E 001°10'0 0.0
2018-Apr-10 14:59N 52°03' E 001°10'0 0.0
2018-Apr-10 14:29N 52°03' E 001°10'0 0.0
2018-Apr-10 13:59N 52°03' E 001°10'0 0.0
2018-Apr-10 13:29N 52°03' E 001°10'0 0.0
2018-Apr-10 12:59N 52°03' E 001°10'0 0.0
2018-Apr-10 12:29N 52°03' E 001°10'0 0.0
2018-Apr-10 11:59N 52°03' E 001°10'0 0.0
2018-Apr-10 11:29N 52°03' E 001°10'0 0.0
2018-Apr-10 10:59N 52°03' E 001°10'0 0.0
2018-Apr-10 10:29N 52°03' E 001°10'0 0.0
2018-Apr-10 09:59N 52°03' E 001°10'0 0.0
2018-Apr-10 09:30N 52°03' E 001°10'0 0.6
2018-Apr-10 09:00N 52°03' E 001°10'2 4.1
2018-Apr-10 08:31N 52°01' E 001°11'3 5.3
2018-Apr-10 08:00N 51°60' E 001°15'2 4.7
2018-Apr-10 07:30N 51°58' E 001°17'1 2.5
2018-Apr-10 07:00N 51°57' E 001°15'1 1.1
2018-Apr-10 06:30N 51°57' E 001°15'  
Track history (hours):
 
Tides and Currents Weather Stations Pressure Air Temp Water Temp Dewpoint Dewpoint Depression Visibility Wind Speed Wind Dir Waves Ship Positions

Morgenster

Last reported at 2018-Apr-20 06:23 UTC. Time now 2018-Apr-20 06:42 UTC.
Position N 53°03' E 004°51'.

Length 38 m; draft 2.4 m.

Type: Sailing vessel. MMSI: 245136000.

Date/timePositionNaut miles runAvg speedWind from/ knotsBaromVisibWave heightAir tempDewpointWater temp
2018-Apr-20 06:23N 53°03' E 004°51'0 0.0
2018-Apr-20 05:50N 53°03' E 004°51'0 0.0
2018-Apr-20 05:29N 53°03' E 004°51'0 0.0
2018-Apr-20 04:53N 53°03' E 004°51'0 0.0
2018-Apr-20 04:29N 53°03' E 004°51'0 0.1
2018-Apr-20 03:59N 53°03' E 004°51'0 0.1
2018-Apr-20 03:23N 53°03' E 004°51'0 0.0
2018-Apr-20 02:59N 53°03' E 004°51'0 0.0
2018-Apr-20 02:26N 53°03' E 004°51'0 0.0
2018-Apr-20 01:59N 53°03' E 004°51'0 0.0
2018-Apr-20 01:29N 53°03' E 004°51'0 0.0
2018-Apr-20 00:59N 53°03' E 004°51'0 0.0
2018-Apr-20 00:26N 53°03' E 004°51'0 0.0
2018-Apr-19 23:56N 53°03' E 004°51'0 0.0
2018-Apr-19 23:29N 53°03' E 004°51'0 0.0
2018-Apr-19 22:56N 53°03' E 004°51'0 0.0
2018-Apr-19 22:29N 53°03' E 004°51'0 0.0
2018-Apr-19 21:53N 53°03' E 004°51'0 0.0
2018-Apr-19 21:26N 53°03' E 004°51'0 0.0
2018-Apr-19 20:59N 53°03' E 004°51'0 0.0
2018-Apr-19 20:26N 53°03' E 004°51'0 0.0
2018-Apr-19 19:56N 53°03' E 004°51'0 0.0
2018-Apr-19 19:23N 53°03' E 004°51'0 0.0
2018-Apr-19 18:56N 53°03' E 004°51'0 0.0
2018-Apr-19 18:23N 53°03' E 004°51'0 0.0
2018-Apr-19 17:56N 53°03' E 004°51'0 0.0
2018-Apr-19 17:29N 53°03' E 004°51'0 0.0
2018-Apr-19 16:59N 53°03' E 004°51'0 0.0
2018-Apr-19 16:31N 53°03' E 004°51'3 5.4
2018-Apr-19 16:00N 53°00' E 004°49'4 6.0
2018-Apr-19 15:25N 52°59' E 004°44'2 5.0
2018-Apr-19 15:01N 53°00' E 004°42'3 5.6
2018-Apr-19 14:30N 53°03' E 004°41'19 4.8
2018-Apr-19 10:29N 53°20' E 004°56'3 5.3
2018-Apr-19 09:58N 53°22' E 004°60'3 5.9
2018-Apr-19 09:30N 53°23' E 005°03'3 6.2
2018-Apr-19 09:00N 53°25' E 005°08'3 6.8
2018-Apr-19 08:30N 53°26' E 005°13'2 4.6
2018-Apr-19 08:00N 53°27' E 005°17'2 4.6
2018-Apr-19 07:30N 53°28' E 005°20'  
2018-Apr-16 17:37N 53°29' E 005°27'1 5.0
2018-Apr-16 17:30N 53°29' E 005°26'3 5.6
2018-Apr-16 17:01N 53°28' E 005°21'3 6.2
2018-Apr-16 16:30N 53°27' E 005°16'3 6.4
2018-Apr-16 16:00N 53°26' E 005°11'4 6.9
2018-Apr-16 15:25N 53°24' E 005°05'25 4.2
2018-Apr-16 09:27N 53°03' E 004°42'3 5.5
2018-Apr-16 08:59N 53°01' E 004°42'2 4.2
2018-Apr-16 08:30N 52°59' E 004°44'2 3.8
2018-Apr-16 08:00N 52°59' E 004°47'1 1.8
2018-Apr-16 07:23N 52°59' E 004°49'0 0.0
2018-Apr-16 06:53N 52°59' E 004°49'0 0.0
2018-Apr-16 06:26N 52°59' E 004°49'0 0.0
2018-Apr-16 04:32N 52°59' E 004°49'0 0.0
2018-Apr-16 04:11N 52°59' E 004°49'0 0.0
2018-Apr-16 03:56N 52°59' E 004°49'0 0.0
2018-Apr-16 03:23N 52°59' E 004°49'0 0.0
2018-Apr-16 02:53N 52°59' E 004°49'0 0.0
2018-Apr-16 02:14N 52°59' E 004°49'0 0.0
2018-Apr-16 00:56N 52°59' E 004°49'0 0.0
2018-Apr-16 00:23N 52°59' E 004°49'0 0.0
2018-Apr-15 22:44N 52°59' E 004°48'0 0.0
2018-Apr-15 22:26N 52°59' E 004°48'0 0.0
2018-Apr-15 21:56N 52°59' E 004°48'0 0.0
2018-Apr-15 21:11N 52°59' E 004°48'0 0.0
2018-Apr-15 19:59N 52°59' E 004°49'0 0.0
2018-Apr-15 19:29N 52°59' E 004°49'0 0.0
2018-Apr-15 18:41N 52°59' E 004°49'0 0.0
2018-Apr-15 18:29N 52°59' E 004°49'0 0.0
2018-Apr-15 17:59N 52°59' E 004°49'0 0.0
2018-Apr-15 17:26N 52°59' E 004°49'0 0.0
2018-Apr-15 16:51N 52°59' E 004°49'1 3.9
2018-Apr-15 16:29N 52°58' E 004°47'1 1.9
2018-Apr-15 16:00N 52°57' E 004°47'1 0.0
2018-Apr-14 07:35N 52°57' E 004°46'0 0.0
2018-Apr-14 07:26N 52°57' E 004°46'0 0.0
2018-Apr-14 06:56N 52°57' E 004°46'0 0.0
2018-Apr-14 06:26N 52°57' E 004°46'0 0.0
2018-Apr-14 05:59N 52°57' E 004°46'0 0.0
2018-Apr-14 05:26N 52°57' E 004°46'0 0.0
2018-Apr-14 04:56N 52°57' E 004°46'0 0.0
2018-Apr-14 04:14N 52°57' E 004°46'0 0.0
2018-Apr-14 03:56N 52°57' E 004°46'0 0.0
2018-Apr-14 03:26N 52°57' E 004°46'0 0.0
2018-Apr-14 02:47N 52°57' E 004°46'0 0.0
2018-Apr-14 02:20N 52°57' E 004°46'0 0.0
2018-Apr-14 01:59N 52°57' E 004°46'0 0.0
2018-Apr-14 00:14N 52°57' E 004°46'0 0.0
2018-Apr-13 23:26N 52°57' E 004°46'0 0.0
2018-Apr-13 22:56N 52°57' E 004°46'0 0.0
2018-Apr-13 22:23N 52°57' E 004°46'0 0.0
2018-Apr-13 21:50N 52°57' E 004°46'0 0.0
2018-Apr-13 20:14N 52°57' E 004°46'0 0.0
2018-Apr-13 19:59N 52°57' E 004°46'0 0.0
2018-Apr-13 19:20N 52°57' E 004°46'0 0.0
2018-Apr-13 18:59N 52°57' E 004°46'0 0.0
2018-Apr-13 18:23N 52°57' E 004°46'0 0.0
2018-Apr-13 17:59N 52°57' E 004°46'0 0.0
2018-Apr-13 17:17N 52°57' E 004°46'0 0.0
2018-Apr-13 16:53N 52°57' E 004°46'0 0.0
2018-Apr-13 16:26N 52°57' E 004°46'0 0.0
2018-Apr-13 15:56N 52°57' E 004°46'0 0.0
2018-Apr-13 15:23N 52°57' E 004°46'0 0.0
2018-Apr-13 14:20N 52°57' E 004°46'0 0.0
2018-Apr-13 13:29N 52°57' E 004°46'0 0.0
2018-Apr-13 12:53N 52°57' E 004°46'0 0.0
2018-Apr-13 12:26N 52°57' E 004°46'0 0.0
2018-Apr-13 11:47N 52°57' E 004°46'0 1.7
2018-Apr-13 11:30N 52°57' E 004°47'1 1.0
2018-Apr-13 11:01N 52°58' E 004°47'2 3.6
2018-Apr-13 10:30N 52°59' E 004°48'3 5.6
2018-Apr-13 10:00N 53°01' E 004°51'1 0.4
2018-Apr-13 06:21N 53°03' E 004°52'0 0.0
2018-Apr-13 06:00N 53°03' E 004°52'0 0.0
2018-Apr-13 03:57N 53°03' E 004°52'0 0.0
2018-Apr-13 03:27N 53°03' E 004°52'0 0.0
2018-Apr-13 02:51N 53°03' E 004°52'0 0.0
2018-Apr-13 02:24N 53°03' E 004°52'0 0.0
2018-Apr-13 01:39N 53°03' E 004°52'0 0.0
2018-Apr-13 01:18N 53°03' E 004°52'0 0.0
2018-Apr-13 01:00N 53°02' E 004°52'0 0.0
2018-Apr-12 18:53N 53°02' E 004°52'2 4.4
2018-Apr-12 18:28N 53°01' E 004°50'3 5.6
2018-Apr-12 18:00N 52°59' E 004°47'3 5.4
2018-Apr-12 17:27N 52°58' E 004°43'3 6.4
2018-Apr-12 17:00N 52°55' E 004°42'3 6.2
2018-Apr-12 16:30N 52°52' E 004°40'3 6.2
2018-Apr-12 16:00N 52°49' E 004°39'6 6.5
2018-Apr-12 15:07N 52°43' E 004°37'2 7.6
2018-Apr-12 14:48N 52°41' E 004°36'2 7.3
2018-Apr-12 14:29N 52°39' E 004°36'2 4.4
2018-Apr-12 13:57N 52°36' E 004°35'2 5.3
2018-Apr-12 13:30N 52°34' E 004°34'3 5.8
2018-Apr-12 13:00N 52°31' E 004°33'3 6.4
2018-Apr-12 12:30N 52°28' E 004°32'3 6.8
2018-Apr-12 12:00N 52°25' E 004°31'3 6.1
2018-Apr-12 11:30N 52°22' E 004°29'3 5.6
2018-Apr-12 11:00N 52°19' E 004°27'3 5.1
2018-Apr-12 10:30N 52°17' E 004°26'3 5.2
2018-Apr-12 10:00N 52°15' E 004°24'2 5.0
2018-Apr-12 09:31N 52°12' E 004°22'2 4.5
2018-Apr-12 09:00N 52°11' E 004°20'2 4.0
2018-Apr-12 08:30N 52°09' E 004°18'2 4.1
2018-Apr-12 08:00N 52°07' E 004°16'2 3.8
2018-Apr-12 07:31N 52°06' E 004°14'2 3.1
2018-Apr-12 07:01N 52°06' E 004°11'1 2.8
2018-Apr-12 06:31N 52°05' E 004°09'1 2.7
2018-Apr-12 06:00N 52°04' E 004°07'1 2.3
2018-Apr-12 05:30N 52°04' E 004°06'1 2.3
2018-Apr-12 05:00N 52°03' E 004°04'1 2.5
2018-Apr-12 04:30N 52°02' E 004°03'2 3.1
2018-Apr-12 04:00N 52°01' E 004°01'2 4.5
2018-Apr-12 03:29N 51°60' E 003°58'3 4.6
2018-Apr-12 02:49N 51°58' E 003°53'2 5.2
2018-Apr-12 02:23N 51°58' E 003°50'53 5.5
2018-Apr-11 16:49N 51°53' E 002°24'3 5.1
2018-Apr-11 16:10N 51°53' E 002°19'1 5.1
2018-Apr-11 15:53N 51°53' E 002°17'4 5.4
2018-Apr-11 15:06N 51°52' E 002°10'1 5.4
2018-Apr-11 14:59N 51°52' E 002°09'3 5.7
2018-Apr-11 14:30N 51°51' E 002°05'3 5.6
2018-Apr-11 14:00N 51°50' E 002°00'3 5.9
2018-Apr-11 13:30N 51°49' E 001°56'3 6.2
2018-Apr-11 13:00N 51°48' E 001°51'3 6.2
2018-Apr-11 12:30N 51°49' E 001°47'3 6.5
2018-Apr-11 12:00N 51°50' E 001°42'3 6.8
2018-Apr-11 11:30N 51°51' E 001°36'3 5.6
2018-Apr-11 11:00N 51°53' E 001°33'3 5.4
2018-Apr-11 10:30N 51°55' E 001°32'3 6.6
2018-Apr-11 10:00N 51°56' E 001°26'3 6.6
2018-Apr-11 09:30N 51°55' E 001°21'2 4.7
2018-Apr-11 09:00N 51°57' E 001°18'3 5.5
2018-Apr-11 08:30N 51°59' E 001°16'3 5.1
2018-Apr-11 08:00N 52°00' E 001°12'2 4.9
2018-Apr-11 07:30N 52°02' E 001°09'1 1.6
2018-Apr-11 06:59N 52°03' E 001°10'0 0.0
2018-Apr-11 06:29N 52°03' E 001°10'0 0.0
2018-Apr-11 05:59N 52°03' E 001°10'0 0.0
2018-Apr-11 05:29N 52°03' E 001°10'0 0.0
2018-Apr-11 04:59N 52°03' E 001°10'0 0.0
2018-Apr-11 04:29N 52°03' E 001°10'0 0.0
2018-Apr-11 03:59N 52°03' E 001°10'0 0.0
2018-Apr-11 03:29N 52°03' E 001°10'0 0.0
2018-Apr-11 02:59N 52°03' E 001°10'0 0.0
2018-Apr-11 02:29N 52°03' E 001°10'0 0.0
2018-Apr-11 01:59N 52°03' E 001°10'0 0.0
2018-Apr-11 01:29N 52°03' E 001°10'0 0.0
2018-Apr-11 00:59N 52°03' E 001°10'0 0.0
2018-Apr-11 00:29N 52°03' E 001°10'0 0.0
2018-Apr-10 23:59N 52°03' E 001°10'0 0.0
2018-Apr-10 23:29N 52°03' E 001°10'0 0.0
2018-Apr-10 22:59N 52°03' E 001°10'0 0.0
2018-Apr-10 22:29N 52°03' E 001°10'0 0.0
2018-Apr-10 21:59N 52°03' E 001°10'0 0.0
2018-Apr-10 21:29N 52°03' E 001°10'0 0.0
2018-Apr-10 20:59N 52°03' E 001°10'0 0.0
2018-Apr-10 20:29N 52°03' E 001°10'0 0.0
2018-Apr-10 19:59N 52°03' E 001°10'0 0.0
2018-Apr-10 19:29N 52°03' E 001°10'0 0.0
2018-Apr-10 18:56N 52°03' E 001°10'0 0.0
2018-Apr-10 18:29N 52°03' E 001°10'0 0.0
2018-Apr-10 17:59N 52°03' E 001°10'0 0.0
2018-Apr-10 17:29N 52°03' E 001°10'0 0.0
2018-Apr-10 16:59N 52°03' E 001°10'0 0.0
2018-Apr-10 16:29N 52°03' E 001°10'0 0.0
2018-Apr-10 15:59N 52°03' E 001°10'0 0.0
2018-Apr-10 15:29N 52°03' E 001°10'0 0.0
2018-Apr-10 14:59N 52°03' E 001°10'0 0.0
2018-Apr-10 14:29N 52°03' E 001°10'0 0.0
2018-Apr-10 13:59N 52°03' E 001°10'0 0.0
2018-Apr-10 13:29N 52°03' E 001°10'0 0.0
2018-Apr-10 12:59N 52°03' E 001°10'0 0.0
2018-Apr-10 12:29N 52°03' E 001°10'0 0.0
2018-Apr-10 11:59N 52°03' E 001°10'0 0.0
2018-Apr-10 11:29N 52°03' E 001°10'0 0.0
2018-Apr-10 10:59N 52°03' E 001°10'0 0.0
2018-Apr-10 10:29N 52°03' E 001°10'0 0.0
2018-Apr-10 09:59N 52°03' E 001°10'0 0.0
2018-Apr-10 09:30N 52°03' E 001°10'0 0.6
2018-Apr-10 09:00N 52°03' E 001°10'2 4.1
2018-Apr-10 08:31N 52°01' E 001°11'3 5.3
2018-Apr-10 08:00N 51°60' E 001°15'2 4.7
2018-Apr-10 07:30N 51°58' E 001°17'1 2.5
2018-Apr-10 07:00N 51°57' E 001°15'1 1.1
2018-Apr-10 06:30N 51°57' E 001°15'  

Dump ship's entire track history